Latest Weather Observations for Truscott

IDW60801

Issued at 10:04 am WST Tuesday 21 November 2017 (issued every 30 minutes, with the page automatically refreshed every 10 minutes)

About weather observations | Map of weather stations | Latest weather observations for WA | Other Formats
Station Details ID: 001020 Name: TRUSCOTT Lat: -14.09 Lon: 126.39 Height: 51.0 m
Data from the previous 72 hours. | See also: Recent months at Truscott
Date/Time
WST
Temp
°C
App
Temp
°C
Dew
Point
°C
Rel
Hum
%
Delta-T
°C
Wind Press
QNH
hPa
Press
MSL
hPa
Rain since
9am
mm
Dir  Spd
km/h
Gust
km/h
Spd
kts
Gust
kts
21/10:00am 33.7 36.4 22.8 53 7.5 SW 13 19 7 10 1008.0 1007.6 0.0
21/09:30am 32.7 35.6 23.1 57 6.6 SSW 13 22 7 12 1008.6 1008.2 0.0
21/09:00am 31.3 34.2 23.9 64 5.2 SSW 15 20 8 11 1009.1 1008.7 0.0
21/08:30am 31.8 36.4 24.7 66 5.0 SE 9 13 5 7 1009.2 1008.8 0.0
21/08:00am 30.1 33.8 24.5 72 3.9 S 13 17 7 9 1009.3 1008.9 0.0
21/07:30am 29.7 33.9 24.8 75 3.4 SSE 11 15 6 8 1009.6 1009.2 0.0
21/07:00am 29.3 34.5 25.1 78 3.0 SSE 7 11 4 6 1009.3 1008.9 0.0
21/06:30am 28.8 33.7 25.2 81 2.5 S 9 11 5 6 1008.6 1008.2 0.0
21/06:00am 27.7 33.0 25.3 87 1.7 SE 7 11 4 6 1008.3 1007.9 0.0
21/05:30am 27.1 32.2 24.9 88 1.5 S 7 11 4 6 1007.7 1007.3 0.0
21/05:00am 26.8 32.4 24.8 89 1.4 S 4 7 2 4 1007.2 1006.8 0.0
21/04:30am 26.8 31.9 24.6 88 1.5 SSE 6 9 3 5 1007.2 1006.8 0.0
21/04:00am 27.3 31.5 24.7 86 1.8 S 11 13 6 7 1007.1 1006.7 0.0
21/03:30am 27.2 31.5 24.3 84 2.0 SSW 9 13 5 7 1006.8 1006.4 0.0
21/03:00am 28.3 33.9 25.5 85 2.0 WNW 6 7 3 4 1006.8 1006.4 0.0
21/02:30am 28.4 34.0 25.8 86 1.8 NW 7 11 4 6 1006.4 1006.0 0.0
21/02:00am 28.2 33.8 25.4 85 2.0 NNW 6 9 3 5 1006.5 1006.1 0.0
21/01:30am 28.2 33.8 25.4 85 2.0 NNW 6 7 3 4 1006.6 1006.2 0.0
21/01:00am 28.1 33.7 25.5 86 1.8 NW 6 9 3 5 1006.9 1006.5 0.0
21/12:30am 28.4 33.8 25.2 83 2.2 NW 6 7 3 4 1007.2 1006.8 0.0
21/12:00am 28.5 33.9 25.1 82 2.4 NW 6 9 3 5 1007.7 1007.3 0.0
 
Date/Time
WST
Temp
°C
App
Temp
°C
Dew
Point
°C
Rel
Hum
%
Delta-T
°C
Wind Press
QNH
hPa
Press
MSL
hPa
Rain since
9am
mm
Dir  Spd
km/h
Gust
km/h
Spd
kts
Gust
kts
20/11:30pm 28.7 33.8 24.9 80 2.7 WNW 7 9 4 5 1008.1 1007.7 0.0
20/11:00pm 29.1 34.3 25.1 79 2.8 WNW 7 13 4 7 1008.5 1008.1 0.0
20/10:30pm 29.3 33.9 25.3 79 2.8 WNW 11 17 6 9 1008.8 1008.4 0.0
20/10:00pm 29.4 34.5 25.6 80 2.7 W 9 13 5 7 1009.3 1008.9 0.0
20/09:30pm 29.4 34.9 25.6 80 2.7 W 7 11 4 6 1009.4 1009.0 0.0
20/09:00pm 29.3 34.9 25.7 81 2.6 WNW 7 11 4 6 1009.2 1008.8 0.0
20/08:30pm 29.6 35.4 25.8 80 2.7 W 6 7 3 4 1009.1 1008.7 0.0
20/08:00pm 29.5 36.0 25.7 80 2.7 NW 2 7 1 4 1009.0 1008.6 0.0
20/07:30pm 29.5 35.1 25.5 79 2.8 NNW 6 9 3 5 1009.0 1008.6 0.0
20/07:00pm 29.5 34.2 25.5 79 2.8 N 11 19 6 10 1008.3 1007.9 0.0
20/06:30pm 29.5 33.7 25.3 78 3.0 N 13 20 7 11 1007.7 1007.3 0.0
20/06:00pm 29.6 33.1 24.9 76 3.3 N 15 24 8 13 1007.0 1006.6 0.0
20/05:30pm 29.9 33.4 24.8 74 3.6 N 15 22 8 12 1006.8 1006.4 0.0
20/05:00pm 30.3 32.6 24.4 70 4.1 N 20 30 11 16 1005.8 1005.4 0.0
20/04:30pm 30.6 32.7 23.8 67 4.7 N 19 30 10 16 1006.0 1005.6 0.0
20/04:00pm 31.2 33.1 23.8 64 5.2 N 20 32 11 17 1005.6 1005.2 0.0
20/03:30pm 31.6 33.5 23.7 63 5.5 N 20 32 11 17 1005.5 1005.1 0.0
20/03:00pm 32.2 33.8 22.9 58 6.4 N 19 26 10 14 1005.6 1005.2 0.0
20/02:30pm 32.4 34.2 22.5 56 6.8 N 17 26 9 14 1005.8 1005.4 0.0
20/02:00pm 32.2 34.1 23.4 59 6.1 NNW 19 26 10 14 1006.0 1005.6 0.0
20/01:30pm 32.4 34.5 23.1 58 6.4 N 17 30 9 16 1006.2 1005.8 0.0
20/01:00pm 33.2 35.2 22.9 54 7.1 N 17 24 9 13 1006.5 1006.1 0.0
20/12:30pm 32.8 34.1 22.6 55 7.0 N 20 32 11 17 1007.2 1006.8 0.0
20/12:00pm 34.9 36.5 20.8 43 9.5 E 13 20 7 11 1007.6 1007.2 0.0
20/11:30am 34.5 35.8 20.8 44 9.2 ENE 15 22 8 12 1007.8 1007.4 0.0
20/11:00am 34.3 36.2 22.0 48 8.4 E 15 20 8 11 1008.4 1008.0 0.0
20/10:30am 33.4 34.9 20.5 46 8.6 E 13 20 7 11 1008.8 1008.4 0.0
20/10:00am 33.0 35.0 21.5 50 7.8 ESE 13 22 7 12 1009.0 1008.6 0.0
20/09:30am 32.0 33.2 20.6 51 7.6 E 15 24 8 13 1009.3 1008.9 0.0
20/09:00am 31.9 33.0 20.5 51 7.6 ENE 15 24 8 13 1009.5 1009.1 4.4
20/08:30am 32.1 34.7 21.9 54 6.9 ESE 11 19 6 10 1009.4 1009.0 4.4
20/08:00am 31.1 34.2 22.1 58 6.1 ESE 9 17 5 9 1009.4 1009.0 4.4
20/07:30am 30.2 33.8 23.1 65 4.9 ESE 9 11 5 6 1009.3 1008.9 4.4
20/07:00am 29.2 33.3 23.2 70 4.1 ESE 7 11 4 6 1009.3 1008.9 4.4
20/06:30am 28.0 31.8 23.4 76 3.2 SE 9 13 5 7 1009.0 1008.6 4.4
20/06:00am 26.9 31.1 23.4 81 2.4 SE 7 13 4 7 1008.9 1008.5 4.4
20/05:30am 25.8 29.9 23.3 86 1.7 SE 7 11 4 6 1008.6 1008.2 4.4
20/05:00am 25.5 29.3 23.4 88 1.4 SSE 9 13 5 7 1008.4 1008.0 4.4
20/04:30am 25.2 29.4 23.4 90 1.2 SE 7 9 4 5 1008.2 1007.8 4.4
20/04:00am 25.4 29.7 23.6 90 1.2 SSE 7 11 4 6 1007.7 1007.3 4.4
20/03:30am 25.3 29.9 24.1 93 0.8 SSE 7 9 4 5 1007.7 1007.3 4.4
20/03:00am 25.3 30.0 24.3 94 0.7 SE 7 9 4 5 1007.9 1007.5 4.4
20/02:30am 25.4 30.3 24.7 96 0.5 SSE 7 9 4 5 1008.2 1007.8 4.4
20/02:00am 25.4 30.5 24.7 96 0.5 S 6 7 3 4 1008.2 1007.8 4.4
20/01:30am 25.5 30.6 24.6 95 0.6 SSE 6 9 3 5 1008.4 1008.0 4.4
20/01:00am 25.7 32.0 24.8 95 0.6 CALM 0 0 0 0 1008.5 1008.1 4.4
20/12:30am 25.8 31.4 24.8 94 0.7 SSW 4 7 2 4 1008.9 1008.5 4.4
20/12:00am 25.8 31.0 24.8 94 0.7 S 6 7 3 4 1009.3 1008.9 4.4
 
Date/Time
WST
Temp
°C
App
Temp
°C
Dew
Point
°C
Rel
Hum
%
Delta-T
°C
Wind Press
QNH
hPa
Press
MSL
hPa
Rain since
9am
mm
Dir  Spd
km/h
Gust
km/h
Spd
kts
Gust
kts
19/11:30pm 26.0 31.3 25.0 94 0.7 SSE 6 9 3 5 1009.7 1009.3 4.4
19/11:00pm 26.3 33.1 25.6 96 0.5 CALM 0 0 0 0 1009.8 1009.4 4.4
19/10:30pm 26.0 31.9 25.3 96 0.5 SSE 4 7 2 4 1010.0 1009.6 4.4
19/10:00pm 26.1 31.8 25.6 97 0.4 S 6 7 3 4 1010.1 1009.7 4.4
19/09:30pm 26.0 31.8 25.8 99 0.1 SSE 6 9 3 5 1010.0 1009.6 4.4
19/09:00pm 26.0 32.4 25.5 97 0.4 NNE 2 6 1 3 1009.6 1009.2 4.4
19/08:30pm 26.2 33.0 25.5 96 0.5 CALM 0 0 0 0 1009.7 1009.3 4.4
19/08:00pm 26.3 31.8 25.3 94 0.7 ESE 6 7 3 4 1009.8 1009.4 4.4
19/07:30pm 26.6 32.7 24.4 88 1.5 CALM 0 0 0 0 1009.7 1009.3 4.4
19/07:00pm 26.8 33.0 25.2 91 1.1 NE 2 9 1 5 1009.2 1008.8 4.4
19/06:30pm 26.9 33.8 25.7 93 0.8 CALM 0 0 0 0 1009.0 1008.6 4.4
19/06:00pm 26.9 33.7 25.5 92 1.0 CALM 0 0 0 0 1008.8 1008.4 4.4
19/05:30pm 27.2 33.9 25.4 90 1.3 CALM 0 0 0 0 1008.5 1008.1 4.4
19/05:00pm 27.3 33.7 24.9 87 1.7 CALM 0 0 0 0 1007.9 1007.5 4.4
19/04:30pm 27.4 32.6 24.8 86 1.8 SW 6 9 3 5 1007.5 1007.1 4.4
19/04:00pm 27.9 32.8 24.3 81 2.5 WSW 6 9 3 5 1007.2 1006.8 4.4
19/03:30pm 27.6 33.3 23.8 80 2.6 CALM 0 0 0 0 1006.6 1006.2 4.4
19/03:00pm 27.0 33.1 24.5 86 1.7 CALM 0 0 0 0 1006.7 1006.3 4.4
19/02:30pm 26.4 32.2 24.6 90 1.3 S 2 6 1 3 1007.2 1006.8 4.4
19/02:00pm 26.0 30.6 24.8 93 0.8 SSW 9 13 5 7 1007.6 1007.2 4.4
19/01:30pm 26.4 31.0 24.8 91 1.1 SSW 9 11 5 6 1008.1 1007.7 4.2
19/01:00pm 26.1 31.2 24.0 88 1.4 SSW 4 9 2 5 1008.5 1008.1 4.2
19/12:30pm 25.6 29.9 23.3 87 1.6 WSW 6 9 3 5 1009.0 1008.6 4.2
19/12:00pm 25.5 30.1 24.1 92 1.0 SW 7 9 4 5 1009.0 1008.6 4.2
19/11:30am 25.1 29.7 24.2 95 0.6 ESE 7 11 4 6 1010.2 1009.8 4.2
19/11:10am 24.3 27.3 23.4 95 0.6 NE 13 20 7 11 1010.2 1009.8 4.2
19/11:00am 24.4 26.1 23.0 92 0.9 NE 19 30 10 16 1010.5 1010.1 3.2
19/10:59am 24.5 26.2 23.1 92 0.9 NE 19 30 10 16 1010.5 1010.1 3.2
19/10:55am 24.6 26.1 22.7 89 1.3 NE 19 30 10 16 1010.6 1010.2 2.6
19/10:30am 28.6 33.7 25.0 81 2.5 NNW 7 15 4 8 1009.7 1009.3 1.6
19/10:00am 27.5 32.6 24.6 84 2.0 NNW 6 9 3 5 1009.3 1008.9 1.6
19/09:33am 26.2 30.8 24.8 92 1.0 W 9 13 5 7 1010.0 1009.6 1.6
19/09:30am 26.0 30.6 24.8 93 0.8 W 9 13 5 7 1010.1 1009.7 1.6
19/09:17am 25.6 28.0 23.7 89 1.3 NW 17 22 9 12 1010.1 1009.7 1.6
19/09:00am 27.7 31.3 24.3 82 2.4 WNW 13 19 7 10 1009.8 1009.4 0.4
19/08:30am 26.9 29.8 23.8 83 2.1 NNW 15 26 8 14 1009.6 1009.2 0.4
19/08:00am 30.9 35.2 23.3 64 5.3 WSW 6 13 3 7 1009.5 1009.1 0.0
19/07:30am 30.5 34.9 23.4 66 4.9 SW 6 11 3 6 1009.3 1008.9 0.0
19/07:00am 30.3 35.5 24.2 70 4.3 SSW 4 9 2 5 1009.4 1009.0 0.0
19/06:30am 29.7 34.8 25.0 76 3.3 S 7 9 4 5 1009.3 1008.9 0.0
19/06:00am 28.7 34.8 25.1 81 2.5 SSW 2 6 1 3 1009.0 1008.6 0.0
19/05:30am 27.3 32.7 25.1 88 1.5 S 6 7 3 4 1008.5 1008.1 0.0
19/05:00am 26.5 31.4 24.7 90 1.3 SSE 7 7 4 4 1008.1 1007.7 0.0
19/04:30am 26.7 31.8 24.7 89 1.4 S 6 7 3 4 1007.6 1007.2 0.0
19/04:00am 26.9 33.3 24.9 89 1.4 CALM 0 0 0 0 1007.4 1007.0 0.0
19/03:30am 26.9 33.3 24.9 89 1.4 CALM 0 0 0 0 1007.5 1007.1 0.0
19/03:00am 27.0 33.3 24.8 88 1.5 CALM 0 0 0 0 1007.6 1007.2 0.0
19/02:30am 27.2 32.4 24.8 87 1.7 S 6 7 3 4 1007.7 1007.3 0.0
19/02:00am 27.2 32.4 24.8 87 1.7 S 6 7 3 4 1007.6 1007.2 0.0
19/01:30am 27.2 32.2 24.8 87 1.7 SSE 7 9 4 5 1007.6 1007.2 0.0
19/01:00am 27.2 32.4 24.8 87 1.7 SSE 6 7 3 4 1007.7 1007.3 0.0
19/12:30am 27.3 33.7 24.9 87 1.7 CALM 0 0 0 0 1007.8 1007.4 0.0
19/12:00am 27.7 34.2 25.1 86 1.8 CALM 0 0 0 0 1008.1 1007.7 0.0
 
Date/Time
WST
Temp
°C
App
Temp
°C
Dew
Point
°C
Rel
Hum
%
Delta-T
°C
Wind Press
QNH
hPa
Press
MSL
hPa
Rain since
9am
mm
Dir  Spd
km/h
Gust
km/h
Spd
kts
Gust
kts
18/11:30pm 27.4 33.7 24.7 85 1.9 CALM 0 0 0 0 1008.4 1008.0 0.0
18/11:00pm 27.9 34.3 24.9 84 2.1 CALM 0 0 0 0 1009.0 1008.6 0.0
18/10:30pm 28.1 34.4 24.7 82 2.4 CALM 0 0 0 0 1009.5 1009.1 0.0
18/10:00pm 27.9 34.2 24.7 83 2.2 CALM 0 0 0 0 1009.6 1009.2 0.0
18/09:30pm 28.0 34.3 24.8 83 2.2 CALM 0 0 0 0 1009.8 1009.4 0.0
18/09:00pm 28.3 33.8 24.7 81 2.5 ENE 4 7 2 4 1009.7 1009.3 0.0
18/08:30pm 28.5 33.6 24.7 80 2.7 ENE 6 7 3 4 1009.5 1009.1 0.0
18/08:00pm 28.9 33.9 24.5 77 3.1 NE 6 9 3 5 1009.1 1008.7 0.0
18/07:30pm 29.1 33.1 24.4 76 3.3 NNE 11 19 6 10 1008.3 1007.9 0.0
18/07:00pm 29.2 32.5 23.9 73 3.7 NNE 13 20 7 11 1007.6 1007.2 0.0
18/06:30pm 29.4 32.7 23.8 72 3.9 NNE 13 20 7 11 1007.2 1006.8 0.0
18/06:00pm 29.6 31.9 22.8 67 4.7 NNE 15 24 8 13 1006.8 1006.4 0.0
18/05:30pm 30.1 32.6 22.5 63 5.2 NNE 13 24 7 13 1006.4 1006.0 0.0
18/05:00pm 30.6 32.2 22.2 61 5.7 NNE 17 28 9 15 1006.1 1005.7 0.0
18/04:30pm 31.5 33.9 23.6 63 5.5 NNE 17 28 9 15 1005.8 1005.4 0.0
18/04:00pm 31.6 32.8 23.2 61 5.8 N 22 35 12 19 1005.6 1005.2 0.0
18/03:30pm 31.7 32.6 22.7 59 6.2 N 22 37 12 20 1005.4 1005.0 0.0
18/03:00pm 32.3 33.4 22.4 56 6.8 N 20 35 11 19 1005.2 1004.7 0.0
18/02:30pm 33.4 34.3 21.9 51 7.8 NNE 20 32 11 17 1005.3 1004.8 0.0
18/02:00pm 33.7 34.7 22.1 50 8.0 N 20 32 11 17 1005.3 1004.8 0.0
18/01:30pm 34.9 34.7 19.3 40 10.3 NE 19 30 10 16 1005.5 1005.1 0.0
18/01:00pm 35.7 36.4 20.4 40 10.3 ENE 17 28 9 15 1005.9 1005.5 0.0
18/12:30pm 34.9 36.7 21.9 46 8.9 ENE 15 22 8 12 1006.3 1005.9 0.0
18/12:00pm 34.3 35.9 21.4 47 8.8 E 15 20 8 11 1006.7 1006.3 0.0
18/11:30am 34.6 35.8 20.6 44 9.4 ENE 15 22 8 12 1007.2 1006.8 0.0
18/11:00am 34.7 35.5 19.9 42 9.9 NE 15 22 8 12 1007.6 1007.2 0.0
18/10:30am 34.8 36.2 20.4 43 9.7 ENE 13 20 7 11 1008.0 1007.6 0.0

Other Formats:

Comma delimited format used in spreadsheet applications
http://www.bom.gov.au/fwo/IDW60801/IDW60801.95101.axf

JavaScript Object Notation format (JSON) in row-major order
http://www.bom.gov.au/fwo/IDW60801/IDW60801.95101.json